KHLG/HLG METAR and TAF weather

Enter ICAO airport designator
Station Type Date Time Source
KHLG METAR 2021/06/24 05:53 UTC NOAA

KHLG 240553Z AUTO 11004KT 10SM CLR 17/08 A3024 RMK AO2 SLP237 T01670078 10211 20156 50000


Station Type Date Time Source
KHLG Decoded METAR 2021/06/24 05:53 UTC NOAA

WHEELING OHIO COUNTY AIRPORT, WV, United States (KHLG) 40-10N 080-39W 372M
Jun 24, 2021 - 01:53 AM EDT / 2021.06.24 0553 UTC
Wind: from the ESE (110 degrees) at 5 MPH (4 KT):0
Visibility: 10 mile(s):0
Sky conditions: clear
Temperature: 62.1 F (16.7 C)
Dew Point: 46.0 F (7.8 C)
Relative Humidity: 55%
Pressure (altimeter): 30.24 in. Hg (1024 hPa)
Pressure tendency: 0.00 inches (0.0 hPa) higher than three hours ago
ob: KHLG 240553Z AUTO 11004KT 10SM CLR 17/08 A3024 RMK AO2 SLP237 T01670078 10211 20156 50000
cycle: 6

Station Type Date Time Source
KHLG TAF 2021/06/24 06:30 UTC NOAA

TAF KHLG 240529Z 2406/2506 11004KT P6SM SKC
FM241600 15010G16KT P6SM SCT050
FM250300 14008KT P6SM SKC

Example: see airport list